sensor_id;sensor_type;location;lat;lon;timestamp;P1;durP1;ratioP1;P2;durP2;ratioP2
69414;SDS011;56608;43.530;-5.652;2023-03-01T00:00:29;3.90;;;1.33;;
69414;SDS011;56608;43.530;-5.652;2023-03-01T00:01:30;2.97;;;1.15;;
69414;SDS011;56608;43.530;-5.652;2023-03-01T00:02:33;3.35;;;1.30;;
69414;SDS011;56608;43.530;-5.652;2023-03-01T00:03:35;3.28;;;1.30;;
69414;SDS011;56608;43.530;-5.652;2023-03-01T00:04:35;5.70;;;1.35;;
69414;SDS011;56608;43.530;-5.652;2023-03-01T00:05:43;6.40;;;1.10;;
69414;SDS011;56608;43.530;-5.652;2023-03-01T00:06:45;5.80;;;1.23;;
69414;SDS011;56608;43.530;-5.652;2023-03-01T00:07:47;3.55;;;0.88;;
69414;SDS011;56608;43.530;-5.652;2023-03-01T00:08:49;4.68;;;1.10;;
69414;SDS011;56608;43.530;-5.652;2023-03-01T00:09:50;2.83;;;1.10;;
69414;SDS011;56608;43.530;-5.652;2023-03-01T00:11:02;3.65;;;1.00;;
69414;SDS011;56608;43.530;-5.652;2023-03-01T00:12:12;5.25;;;1.10;;
69414;SDS011;56608;43.530;-5.652;2023-03-01T00:13:14;5.15;;;1.25;;
69414;SDS011;56608;43.530;-5.652;2023-03-01T00:14:15;2.45;;;1.00;;
69414;SDS011;56608;43.530;-5.652;2023-03-01T00:15:20;5.65;;;1.42;;
69414;SDS011;56608;43.530;-5.652;2023-03-01T00:16:23;5.70;;;1.45;;
69414;SDS011;56608;43.530;-5.652;2023-03-01T00:17:27;3.87;;;1.23;;
69414;SDS011;56608;43.530;-5.652;2023-03-01T00:18:28;3.03;;;1.05;;
69414;SDS011;56608;43.530;-5.652;2023-03-01T00:19:30;5.95;;;1.48;;
69414;SDS011;56608;43.530;-5.652;2023-03-01T00:20:33;3.40;;;1.08;;
69414;SDS011;56608;43.530;-5.652;2023-03-01T00:21:35;5.20;;;1.17;;
69414;SDS011;56608;43.530;-5.652;2023-03-01T00:22:37;4.55;;;1.02;;
69414;SDS011;56608;43.530;-5.652;2023-03-01T00:23:38;2.75;;;1.10;;
69414;SDS011;56608;43.530;-5.652;2023-03-01T00:24:40;3.87;;;1.20;;
69414;SDS011;56608;43.530;-5.652;2023-03-01T00:25:42;4.47;;;0.98;;
69414;SDS011;56608;43.530;-5.652;2023-03-01T00:26:43;2.70;;;1.00;;
69414;SDS011;56608;43.530;-5.652;2023-03-01T00:27:46;7.07;;;1.23;;
69414;SDS011;56608;43.530;-5.652;2023-03-01T00:28:47;2.97;;;0.90;;
69414;SDS011;56608;43.530;-5.652;2023-03-01T00:29:49;3.00;;;0.90;;
69414;SDS011;56608;43.530;-5.652;2023-03-01T00:30:49;4.77;;;0.80;;
69414;SDS011;56608;43.530;-5.652;2023-03-01T00:31:51;3.92;;;0.80;;
69414;SDS011;56608;43.530;-5.652;2023-03-01T00:32:53;3.95;;;0.90;;
69414;SDS011;56608;43.530;-5.652;2023-03-01T00:33:55;3.28;;;1.00;;
69414;SDS011;56608;43.530;-5.652;2023-03-01T00:34:58;4.82;;;0.90;;
69414;SDS011;56608;43.530;-5.652;2023-03-01T00:36:00;4.15;;;0.93;;
69414;SDS011;56608;43.530;-5.652;2023-03-01T00:38:06;3.05;;;0.93;;
69414;SDS011;56608;43.530;-5.652;2023-03-01T00:40:11;2.62;;;0.80;;
69414;SDS011;56608;43.530;-5.652;2023-03-01T00:42:15;1.75;;;0.90;;
69414;SDS011;56608;43.530;-5.652;2023-03-01T00:43:17;4.10;;;1.02;;
69414;SDS011;56608;43.530;-5.652;2023-03-01T00:45:20;2.95;;;1.10;;
69414;SDS011;56608;43.530;-5.652;2023-03-01T00:47:24;4.82;;;1.33;;
69414;SDS011;56608;43.530;-5.652;2023-03-01T00:48:25;3.20;;;1.08;;
69414;SDS011;56608;43.530;-5.652;2023-03-01T00:49:26;2.50;;;1.20;;
69414;SDS011;56608;43.530;-5.652;2023-03-01T00:50:28;5.82;;;1.62;;
69414;SDS011;56608;43.530;-5.652;2023-03-01T00:51:30;3.75;;;1.20;;
69414;SDS011;56608;43.530;-5.652;2023-03-01T00:52:31;5.82;;;1.20;;
69414;SDS011;56608;43.530;-5.652;2023-03-01T00:53:33;2.67;;;0.85;;
69414;SDS011;56608;43.530;-5.652;2023-03-01T00:54:35;7.65;;;1.30;;
69414;SDS011;56608;43.530;-5.652;2023-03-01T00:55:36;1.80;;;1.00;;
69414;SDS011;56608;43.530;-5.652;2023-03-01T00:56:38;4.30;;;1.20;;
69414;SDS011;56608;43.530;-5.652;2023-03-01T00:57:39;5.30;;;1.10;;
69414;SDS011;56608;43.530;-5.652;2023-03-01T00:58:40;6.10;;;1.20;;
69414;SDS011;56608;43.530;-5.652;2023-03-01T00:59:41;6.68;;;1.10;;
69414;SDS011;56608;43.530;-5.652;2023-03-01T01:00:42;2.40;;;1.10;;
69414;SDS011;56608;43.530;-5.652;2023-03-01T01:01:44;3.95;;;1.30;;
69414;SDS011;56608;43.530;-5.652;2023-03-01T01:02:45;2.80;;;1.13;;
69414;SDS011;56608;43.530;-5.652;2023-03-01T01:04:48;3.37;;;1.17;;
69414;SDS011;56608;43.530;-5.652;2023-03-01T01:05:51;4.10;;;1.10;;
69414;SDS011;56608;43.530;-5.652;2023-03-01T01:06:53;6.95;;;0.93;;
69414;SDS011;56608;43.530;-5.652;2023-03-01T01:07:54;2.45;;;0.85;;
69414;SDS011;56608;43.530;-5.652;2023-03-01T01:08:56;5.95;;;1.30;;
69414;SDS011;56608;43.530;-5.652;2023-03-01T01:09:58;3.90;;;1.17;;
69414;SDS011;56608;43.530;-5.652;2023-03-01T01:12:00;4.15;;;1.12;;
69414;SDS011;56608;43.530;-5.652;2023-03-01T01:13:02;4.60;;;1.05;;
69414;SDS011;56608;43.530;-5.652;2023-03-01T01:15:05;2.22;;;0.90;;
69414;SDS011;56608;43.530;-5.652;2023-03-01T01:17:07;3.92;;;1.20;;
69414;SDS011;56608;43.530;-5.652;2023-03-01T01:18:09;2.62;;;1.20;;
69414;SDS011;56608;43.530;-5.652;2023-03-01T01:19:10;4.85;;;1.10;;
69414;SDS011;56608;43.530;-5.652;2023-03-01T01:20:12;1.98;;;1.00;;
69414;SDS011;56608;43.530;-5.652;2023-03-01T01:21:15;4.80;;;1.30;;
69414;SDS011;56608;43.530;-5.652;2023-03-01T01:22:17;3.28;;;1.23;;
69414;SDS011;56608;43.530;-5.652;2023-03-01T01:23:19;8.35;;;1.20;;
69414;SDS011;56608;43.530;-5.652;2023-03-01T01:24:20;8.95;;;1.50;;
69414;SDS011;56608;43.530;-5.652;2023-03-01T01:25:21;5.55;;;1.40;;
69414;SDS011;56608;43.530;-5.652;2023-03-01T01:26:27;3.62;;;1.23;;
69414;SDS011;56608;43.530;-5.652;2023-03-01T01:27:30;2.17;;;1.20;;
69414;SDS011;56608;43.530;-5.652;2023-03-01T01:28:32;3.40;;;1.30;;
69414;SDS011;56608;43.530;-5.652;2023-03-01T01:29:33;5.50;;;1.55;;
69414;SDS011;56608;43.530;-5.652;2023-03-01T01:30:35;6.95;;;1.20;;
69414;SDS011;56608;43.530;-5.652;2023-03-01T01:31:36;3.90;;;1.40;;
69414;SDS011;56608;43.530;-5.652;2023-03-01T01:32:40;8.30;;;1.70;;
69414;SDS011;56608;43.530;-5.652;2023-03-01T01:33:41;7.28;;;1.62;;
69414;SDS011;56608;43.530;-5.652;2023-03-01T01:35:44;5.78;;;1.35;;
69414;SDS011;56608;43.530;-5.652;2023-03-01T01:36:50;5.03;;;1.40;;
69414;SDS011;56608;43.530;-5.652;2023-03-01T01:37:56;3.58;;;1.30;;
69414;SDS011;56608;43.530;-5.652;2023-03-01T01:38:57;4.90;;;1.60;;
69414;SDS011;56608;43.530;-5.652;2023-03-01T01:39:59;5.62;;;1.37;;
69414;SDS011;56608;43.530;-5.652;2023-03-01T01:41:02;2.35;;;1.10;;
69414;SDS011;56608;43.530;-5.652;2023-03-01T01:42:04;2.62;;;1.23;;
69414;SDS011;56608;43.530;-5.652;2023-03-01T01:43:08;3.20;;;1.62;;
69414;SDS011;56608;43.530;-5.652;2023-03-01T01:44:30;4.95;;;1.58;;
69414;SDS011;56608;43.530;-5.652;2023-03-01T01:45:34;4.15;;;1.25;;
69414;SDS011;56608;43.530;-5.652;2023-03-01T01:46:46;2.03;;;1.33;;
69414;SDS011;56608;43.530;-5.652;2023-03-01T01:47:51;3.83;;;1.40;;
69414;SDS011;56608;43.530;-5.652;2023-03-01T01:49:07;6.18;;;1.90;;
69414;SDS011;56608;43.530;-5.652;2023-03-01T01:50:23;6.97;;;1.92;;
69414;SDS011;56608;43.530;-5.652;2023-03-01T01:51:25;6.22;;;1.70;;
69414;SDS011;56608;43.530;-5.652;2023-03-01T01:52:39;9.05;;;1.95;;
69414;SDS011;56608;43.530;-5.652;2023-03-01T01:53:39;5.30;;;1.60;;
69414;SDS011;56608;43.530;-5.652;2023-03-01T01:54:50;5.07;;;1.85;;
69414;SDS011;56608;43.530;-5.652;2023-03-01T01:55:55;6.65;;;2.00;;
69414;SDS011;56608;43.530;-5.652;2023-03-01T01:57:02;4.97;;;1.60;;
69414;SDS011;56608;43.530;-5.652;2023-03-01T01:58:05;3.47;;;1.60;;
69414;SDS011;56608;43.530;-5.652;2023-03-01T01:59:10;5.53;;;1.55;;
69414;SDS011;56608;43.530;-5.652;2023-03-01T02:01:16;2.90;;;1.52;;
69414;SDS011;56608;43.530;-5.652;2023-03-01T02:02:18;3.15;;;1.30;;
69414;SDS011;56608;43.530;-5.652;2023-03-01T02:03:24;5.18;;;1.55;;
69414;SDS011;56608;43.530;-5.652;2023-03-01T02:04:31;6.70;;;1.40;;
69414;SDS011;56608;43.530;-5.652;2023-03-01T02:07:01;5.22;;;2.08;;
69414;SDS011;56608;43.530;-5.652;2023-03-01T02:08:16;4.97;;;1.48;;
69414;SDS011;56608;43.530;-5.652;2023-03-01T02:09:20;4.80;;;1.55;;
69414;SDS011;56608;43.530;-5.652;2023-03-01T02:10:23;3.15;;;1.37;;
69414;SDS011;56608;43.530;-5.652;2023-03-01T02:11:25;4.93;;;1.35;;
69414;SDS011;56608;43.530;-5.652;2023-03-01T02:12:28;5.85;;;1.50;;
69414;SDS011;56608;43.530;-5.652;2023-03-01T02:13:31;2.25;;;1.40;;
69414;SDS011;56608;43.530;-5.652;2023-03-01T02:14:33;8.48;;;2.25;;
69414;SDS011;56608;43.530;-5.652;2023-03-01T02:15:35;6.35;;;1.60;;
69414;SDS011;56608;43.530;-5.652;2023-03-01T02:16:38;2.58;;;1.42;;
69414;SDS011;56608;43.530;-5.652;2023-03-01T02:17:39;8.35;;;1.50;;
69414;SDS011;56608;43.530;-5.652;2023-03-01T02:18:41;3.83;;;1.58;;
69414;SDS011;56608;43.530;-5.652;2023-03-01T02:23:18;7.70;;;1.55;;
69414;SDS011;56608;43.530;-5.652;2023-03-01T02:24:23;3.20;;;1.48;;
69414;SDS011;56608;43.530;-5.652;2023-03-01T02:25:38;8.32;;;1.87;;
69414;SDS011;56608;43.530;-5.652;2023-03-01T02:27:00;2.53;;;1.57;;
69414;SDS011;56608;43.530;-5.652;2023-03-01T02:29:19;3.22;;;1.75;;
69414;SDS011;56608;43.530;-5.652;2023-03-01T02:30:21;6.35;;;1.87;;
69414;SDS011;56608;43.530;-5.652;2023-03-01T02:31:25;6.20;;;1.98;;
69414;SDS011;56608;43.530;-5.652;2023-03-01T02:32:45;3.12;;;1.95;;
69414;SDS011;56608;43.530;-5.652;2023-03-01T02:33:48;4.37;;;1.73;;
69414;SDS011;56608;43.530;-5.652;2023-03-01T02:34:50;5.82;;;2.40;;
69414;SDS011;56608;43.530;-5.652;2023-03-01T02:35:54;8.43;;;2.15;;
69414;SDS011;56608;43.530;-5.652;2023-03-01T02:36:58;6.72;;;1.95;;
69414;SDS011;56608;43.530;-5.652;2023-03-01T02:38:02;4.87;;;2.35;;
69414;SDS011;56608;43.530;-5.652;2023-03-01T02:39:06;6.20;;;2.67;;
69414;SDS011;56608;43.530;-5.652;2023-03-01T02:40:16;5.32;;;2.58;;
69414;SDS011;56608;43.530;-5.652;2023-03-01T02:41:19;6.07;;;2.45;;
69414;SDS011;56608;43.530;-5.652;2023-03-01T02:42:23;3.85;;;2.20;;
69414;SDS011;56608;43.530;-5.652;2023-03-01T02:43:30;4.35;;;2.67;;
69414;SDS011;56608;43.530;-5.652;2023-03-01T02:44:33;3.70;;;2.42;;
69414;SDS011;56608;43.530;-5.652;2023-03-01T02:45:35;8.82;;;2.35;;
69414;SDS011;56608;43.530;-5.652;2023-03-01T02:46:41;6.82;;;2.50;;
69414;SDS011;56608;43.530;-5.652;2023-03-01T02:47:47;4.55;;;2.47;;
69414;SDS011;56608;43.530;-5.652;2023-03-01T02:48:50;9.73;;;2.35;;
69414;SDS011;56608;43.530;-5.652;2023-03-01T02:49:53;6.45;;;2.33;;
69414;SDS011;56608;43.530;-5.652;2023-03-01T02:54:29;3.60;;;1.52;;
69414;SDS011;56608;43.530;-5.652;2023-03-01T02:55:14;2.70;;;1.67;;
69414;SDS011;56608;43.530;-5.652;2023-03-01T02:56:17;6.35;;;1.73;;
69414;SDS011;56608;43.530;-5.652;2023-03-01T02:57:19;2.37;;;1.30;;
69414;SDS011;56608;43.530;-5.652;2023-03-01T02:58:22;3.03;;;1.45;;
69414;SDS011;56608;43.530;-5.652;2023-03-01T02:59:29;3.67;;;1.40;;
69414;SDS011;56608;43.530;-5.652;2023-03-01T03:00:40;3.70;;;1.40;;
69414;SDS011;56608;43.530;-5.652;2023-03-01T03:01:47;4.75;;;1.48;;
69414;SDS011;56608;43.530;-5.652;2023-03-01T03:02:50;4.65;;;1.30;;
69414;SDS011;56608;43.530;-5.652;2023-03-01T03:03:53;4.60;;;1.17;;
69414;SDS011;56608;43.530;-5.652;2023-03-01T03:04:54;4.50;;;1.60;;
69414;SDS011;56608;43.530;-5.652;2023-03-01T03:05:55;3.55;;;1.27;;
69414;SDS011;56608;43.530;-5.652;2023-03-01T03:06:57;3.55;;;1.20;;
69414;SDS011;56608;43.530;-5.652;2023-03-01T03:07:59;3.70;;;1.40;;
69414;SDS011;56608;43.530;-5.652;2023-03-01T03:09:02;2.85;;;1.42;;
69414;SDS011;56608;43.530;-5.652;2023-03-01T03:10:06;4.68;;;1.52;;
69414;SDS011;56608;43.530;-5.652;2023-03-01T03:11:10;3.35;;;1.52;;
69414;SDS011;56608;43.530;-5.652;2023-03-01T03:12:10;4.77;;;1.63;;
69414;SDS011;56608;43.530;-5.652;2023-03-01T03:13:13;6.03;;;1.58;;
69414;SDS011;56608;43.530;-5.652;2023-03-01T03:14:15;5.28;;;1.98;;
69414;SDS011;56608;43.530;-5.652;2023-03-01T03:15:18;7.37;;;1.75;;
69414;SDS011;56608;43.530;-5.652;2023-03-01T03:16:21;3.87;;;1.55;;
69414;SDS011;56608;43.530;-5.652;2023-03-01T03:18:24;7.18;;;1.70;;
69414;SDS011;56608;43.530;-5.652;2023-03-01T03:19:29;4.75;;;1.85;;
69414;SDS011;56608;43.530;-5.652;2023-03-01T03:20:30;5.57;;;2.37;;
69414;SDS011;56608;43.530;-5.652;2023-03-01T03:21:33;4.35;;;1.95;;
69414;SDS011;56608;43.530;-5.652;2023-03-01T03:22:34;8.20;;;2.42;;
69414;SDS011;56608;43.530;-5.652;2023-03-01T03:23:36;7.50;;;2.90;;
69414;SDS011;56608;43.530;-5.652;2023-03-01T03:25:39;8.00;;;3.00;;
69414;SDS011;56608;43.530;-5.652;2023-03-01T03:26:40;8.35;;;3.30;;
69414;SDS011;56608;43.530;-5.652;2023-03-01T03:27:42;6.35;;;3.70;;
69414;SDS011;56608;43.530;-5.652;2023-03-01T03:28:45;7.80;;;3.67;;
69414;SDS011;56608;43.530;-5.652;2023-03-01T03:29:47;5.75;;;3.67;;
69414;SDS011;56608;43.530;-5.652;2023-03-01T03:30:49;7.75;;;4.10;;
69414;SDS011;56608;43.530;-5.652;2023-03-01T03:32:51;10.35;;;4.50;;
69414;SDS011;56608;43.530;-5.652;2023-03-01T03:33:53;10.82;;;5.10;;
69414;SDS011;56608;43.530;-5.652;2023-03-01T03:35:56;8.75;;;4.80;;
69414;SDS011;56608;43.530;-5.652;2023-03-01T03:36:56;8.03;;;4.67;;
69414;SDS011;56608;43.530;-5.652;2023-03-01T03:38:00;6.97;;;4.95;;
69414;SDS011;56608;43.530;-5.652;2023-03-01T03:39:06;8.80;;;4.93;;
69414;SDS011;56608;43.530;-5.652;2023-03-01T03:40:08;8.60;;;5.25;;
69414;SDS011;56608;43.530;-5.652;2023-03-01T03:41:16;7.18;;;4.50;;
69414;SDS011;56608;43.530;-5.652;2023-03-01T03:42:18;7.45;;;5.00;;
69414;SDS011;56608;43.530;-5.652;2023-03-01T03:43:20;11.00;;;4.93;;
69414;SDS011;56608;43.530;-5.652;2023-03-01T03:44:23;12.20;;;5.55;;
69414;SDS011;56608;43.530;-5.652;2023-03-01T03:45:24;8.33;;;4.83;;
69414;SDS011;56608;43.530;-5.652;2023-03-01T03:46:26;10.10;;;4.90;;
69414;SDS011;56608;43.530;-5.652;2023-03-01T03:47:27;7.00;;;4.87;;
69414;SDS011;56608;43.530;-5.652;2023-03-01T03:48:28;11.00;;;4.90;;
69414;SDS011;56608;43.530;-5.652;2023-03-01T03:49:30;8.07;;;4.57;;
69414;SDS011;56608;43.530;-5.652;2023-03-01T03:50:30;7.15;;;4.65;;
69414;SDS011;56608;43.530;-5.652;2023-03-01T03:51:32;10.90;;;5.05;;
69414;SDS011;56608;43.530;-5.652;2023-03-01T03:52:33;10.00;;;5.40;;
69414;SDS011;56608;43.530;-5.652;2023-03-01T03:53:35;11.35;;;4.90;;
69414;SDS011;56608;43.530;-5.652;2023-03-01T03:54:36;8.65;;;4.55;;
69414;SDS011;56608;43.530;-5.652;2023-03-01T03:55:37;8.23;;;4.90;;
69414;SDS011;56608;43.530;-5.652;2023-03-01T03:56:42;9.13;;;4.72;;
69414;SDS011;56608;43.530;-5.652;2023-03-01T03:57:46;7.20;;;4.87;;
69414;SDS011;56608;43.530;-5.652;2023-03-01T03:58:55;8.65;;;4.90;;
69414;SDS011;56608;43.530;-5.652;2023-03-01T03:59:56;8.82;;;4.57;;
69414;SDS011;56608;43.530;-5.652;2023-03-01T04:00:57;7.65;;;4.80;;
69414;SDS011;56608;43.530;-5.652;2023-03-01T04:01:59;10.47;;;4.50;;
69414;SDS011;56608;43.530;-5.652;2023-03-01T04:03:00;9.35;;;5.00;;
69414;SDS011;56608;43.530;-5.652;2023-03-01T04:04:02;7.50;;;4.50;;
69414;SDS011;56608;43.530;-5.652;2023-03-01T04:05:05;8.10;;;4.55;;
69414;SDS011;56608;43.530;-5.652;2023-03-01T04:06:07;8.15;;;4.90;;
69414;SDS011;56608;43.530;-5.652;2023-03-01T04:07:08;8.68;;;4.97;;
69414;SDS011;56608;43.530;-5.652;2023-03-01T04:08:10;7.80;;;4.15;;
69414;SDS011;56608;43.530;-5.652;2023-03-01T04:09:12;8.85;;;4.72;;
69414;SDS011;56608;43.530;-5.652;2023-03-01T04:10:15;7.72;;;4.43;;
69414;SDS011;56608;43.530;-5.652;2023-03-01T04:11:17;7.15;;;4.35;;
69414;SDS011;56608;43.530;-5.652;2023-03-01T04:12:28;6.28;;;4.07;;
69414;SDS011;56608;43.530;-5.652;2023-03-01T04:13:28;7.20;;;4.70;;
69414;SDS011;56608;43.530;-5.652;2023-03-01T04:14:30;13.50;;;4.72;;
69414;SDS011;56608;43.530;-5.652;2023-03-01T04:15:32;8.30;;;4.75;;
69414;SDS011;56608;43.530;-5.652;2023-03-01T04:16:34;9.32;;;4.80;;
69414;SDS011;56608;43.530;-5.652;2023-03-01T04:17:35;11.97;;;5.37;;
69414;SDS011;56608;43.530;-5.652;2023-03-01T04:18:36;7.25;;;4.65;;
69414;SDS011;56608;43.530;-5.652;2023-03-01T04:19:38;7.57;;;4.60;;
69414;SDS011;56608;43.530;-5.652;2023-03-01T04:20:39;8.55;;;4.68;;
69414;SDS011;56608;43.530;-5.652;2023-03-01T04:21:40;11.35;;;4.47;;
69414;SDS011;56608;43.530;-5.652;2023-03-01T04:22:42;6.87;;;4.37;;
69414;SDS011;56608;43.530;-5.652;2023-03-01T04:23:47;5.70;;;4.22;;
69414;SDS011;56608;43.530;-5.652;2023-03-01T04:24:49;7.55;;;5.00;;
69414;SDS011;56608;43.530;-5.652;2023-03-01T04:25:50;8.60;;;4.60;;
69414;SDS011;56608;43.530;-5.652;2023-03-01T04:26:56;10.00;;;5.15;;
69414;SDS011;56608;43.530;-5.652;2023-03-01T04:27:57;7.95;;;4.30;;
69414;SDS011;56608;43.530;-5.652;2023-03-01T04:28:58;7.65;;;5.15;;
69414;SDS011;56608;43.530;-5.652;2023-03-01T04:30:00;6.75;;;4.53;;
69414;SDS011;56608;43.530;-5.652;2023-03-01T04:31:05;12.32;;;5.28;;
69414;SDS011;56608;43.530;-5.652;2023-03-01T04:32:13;8.70;;;4.45;;
69414;SDS011;56608;43.530;-5.652;2023-03-01T04:33:17;10.18;;;5.07;;
69414;SDS011;56608;43.530;-5.652;2023-03-01T04:34:19;6.40;;;4.57;;
69414;SDS011;56608;43.530;-5.652;2023-03-01T04:35:21;8.55;;;4.90;;
69414;SDS011;56608;43.530;-5.652;2023-03-01T04:36:23;9.05;;;4.97;;
69414;SDS011;56608;43.530;-5.652;2023-03-01T04:37:27;11.63;;;5.60;;
69414;SDS011;56608;43.530;-5.652;2023-03-01T04:38:28;12.00;;;5.00;;
69414;SDS011;56608;43.530;-5.652;2023-03-01T04:39:30;7.75;;;4.45;;
69414;SDS011;56608;43.530;-5.652;2023-03-01T04:40:31;7.70;;;4.75;;
69414;SDS011;56608;43.530;-5.652;2023-03-01T04:41:33;8.25;;;4.47;;
69414;SDS011;56608;43.530;-5.652;2023-03-01T04:42:35;8.20;;;4.90;;
69414;SDS011;56608;43.530;-5.652;2023-03-01T04:44:37;9.52;;;4.22;;
69414;SDS011;56608;43.530;-5.652;2023-03-01T04:45:39;7.30;;;4.50;;
69414;SDS011;56608;43.530;-5.652;2023-03-01T04:46:40;10.70;;;4.70;;
69414;SDS011;56608;43.530;-5.652;2023-03-01T04:47:41;12.35;;;5.30;;
69414;SDS011;56608;43.530;-5.652;2023-03-01T04:48:45;8.35;;;5.15;;
69414;SDS011;56608;43.530;-5.652;2023-03-01T04:49:48;7.80;;;4.68;;
69414;SDS011;56608;43.530;-5.652;2023-03-01T04:50:49;10.05;;;5.32;;
69414;SDS011;56608;43.530;-5.652;2023-03-01T04:51:50;7.40;;;4.60;;
69414;SDS011;56608;43.530;-5.652;2023-03-01T04:52:52;7.20;;;4.60;;
69414;SDS011;56608;43.530;-5.652;2023-03-01T04:53:54;11.05;;;6.05;;
69414;SDS011;56608;43.530;-5.652;2023-03-01T04:54:55;6.70;;;4.90;;
69414;SDS011;56608;43.530;-5.652;2023-03-01T04:55:56;10.23;;;5.28;;
69414;SDS011;56608;43.530;-5.652;2023-03-01T04:56:57;9.70;;;5.10;;
69414;SDS011;56608;43.530;-5.652;2023-03-01T04:57:59;8.02;;;4.65;;
69414;SDS011;56608;43.530;-5.652;2023-03-01T04:59:00;6.85;;;4.65;;
69414;SDS011;56608;43.530;-5.652;2023-03-01T05:00:07;10.90;;;4.82;;
69414;SDS011;56608;43.530;-5.652;2023-03-01T05:01:23;14.38;;;5.70;;
69414;SDS011;56608;43.530;-5.652;2023-03-01T05:02:25;9.40;;;5.15;;
69414;SDS011;56608;43.530;-5.652;2023-03-01T05:03:26;13.45;;;5.00;;
69414;SDS011;56608;43.530;-5.652;2023-03-01T05:04:29;11.85;;;4.50;;
69414;SDS011;56608;43.530;-5.652;2023-03-01T05:05:32;8.77;;;4.80;;
69414;SDS011;56608;43.530;-5.652;2023-03-01T05:06:35;5.55;;;4.40;;
69414;SDS011;56608;43.530;-5.652;2023-03-01T05:07:36;7.60;;;4.45;;
69414;SDS011;56608;43.530;-5.652;2023-03-01T05:08:38;6.93;;;4.28;;
69414;SDS011;56608;43.530;-5.652;2023-03-01T05:09:41;8.27;;;4.40;;
69414;SDS011;56608;43.530;-5.652;2023-03-01T05:10:43;7.93;;;4.65;;
69414;SDS011;56608;43.530;-5.652;2023-03-01T05:11:47;9.85;;;4.00;;
69414;SDS011;56608;43.530;-5.652;2023-03-01T05:12:48;8.65;;;4.37;;
69414;SDS011;56608;43.530;-5.652;2023-03-01T05:13:50;8.32;;;4.22;;
69414;SDS011;56608;43.530;-5.652;2023-03-01T05:14:55;8.93;;;4.20;;
69414;SDS011;56608;43.530;-5.652;2023-03-01T05:15:57;10.30;;;4.15;;
69414;SDS011;56608;43.530;-5.652;2023-03-01T05:17:01;6.82;;;4.30;;
69414;SDS011;56608;43.530;-5.652;2023-03-01T05:18:05;8.25;;;4.40;;
69414;SDS011;56608;43.530;-5.652;2023-03-01T05:19:12;9.68;;;3.90;;
69414;SDS011;56608;43.530;-5.652;2023-03-01T05:20:16;8.23;;;4.28;;
69414;SDS011;56608;43.530;-5.652;2023-03-01T05:21:17;8.85;;;4.10;;
69414;SDS011;56608;43.530;-5.652;2023-03-01T05:22:19;9.35;;;3.87;;
69414;SDS011;56608;43.530;-5.652;2023-03-01T05:23:20;6.00;;;3.67;;
69414;SDS011;56608;43.530;-5.652;2023-03-01T05:24:22;7.15;;;4.10;;
69414;SDS011;56608;43.530;-5.652;2023-03-01T05:25:23;6.80;;;4.20;;
69414;SDS011;56608;43.530;-5.652;2023-03-01T05:26:24;8.00;;;4.20;;
69414;SDS011;56608;43.530;-5.652;2023-03-01T05:27:29;5.85;;;3.70;;
69414;SDS011;56608;43.530;-5.652;2023-03-01T05:28:31;6.55;;;3.60;;
69414;SDS011;56608;43.530;-5.652;2023-03-01T05:29:33;7.62;;;3.60;;
69414;SDS011;56608;43.530;-5.652;2023-03-01T05:30:35;6.70;;;3.53;;
69414;SDS011;56608;43.530;-5.652;2023-03-01T05:31:39;6.25;;;3.42;;
69414;SDS011;56608;43.530;-5.652;2023-03-01T05:32:45;7.40;;;3.70;;
69414;SDS011;56608;43.530;-5.652;2023-03-01T05:33:48;7.03;;;3.90;;
69414;SDS011;56608;43.530;-5.652;2023-03-01T05:34:49;9.38;;;3.80;;
69414;SDS011;56608;43.530;-5.652;2023-03-01T05:35:53;6.05;;;3.53;;
69414;SDS011;56608;43.530;-5.652;2023-03-01T05:36:55;5.07;;;3.30;;
69414;SDS011;56608;43.530;-5.652;2023-03-01T05:37:56;9.77;;;4.00;;
69414;SDS011;56608;43.530;-5.652;2023-03-01T05:38:57;7.05;;;4.57;;
69414;SDS011;56608;43.530;-5.652;2023-03-01T05:39:59;5.70;;;3.70;;
69414;SDS011;56608;43.530;-5.652;2023-03-01T05:40:59;11.60;;;3.90;;
69414;SDS011;56608;43.530;-5.652;2023-03-01T05:42:01;6.78;;;4.00;;
69414;SDS011;56608;43.530;-5.652;2023-03-01T05:43:03;8.70;;;4.50;;
69414;SDS011;56608;43.530;-5.652;2023-03-01T05:44:06;6.82;;;4.40;;
69414;SDS011;56608;43.530;-5.652;2023-03-01T05:45:08;6.80;;;4.40;;
69414;SDS011;56608;43.530;-5.652;2023-03-01T05:46:10;9.40;;;4.37;;
69414;SDS011;56608;43.530;-5.652;2023-03-01T05:47:14;6.07;;;4.32;;
69414;SDS011;56608;43.530;-5.652;2023-03-01T05:48:15;7.15;;;4.28;;
69414;SDS011;56608;43.530;-5.652;2023-03-01T05:49:17;8.88;;;4.80;;
69414;SDS011;56608;43.530;-5.652;2023-03-01T05:50:38;8.85;;;4.05;;
69414;SDS011;56608;43.530;-5.652;2023-03-01T05:51:41;9.93;;;4.15;;
69414;SDS011;56608;43.530;-5.652;2023-03-01T05:52:47;10.20;;;4.93;;
69414;SDS011;56608;43.530;-5.652;2023-03-01T05:53:50;7.28;;;3.97;;
69414;SDS011;56608;43.530;-5.652;2023-03-01T05:54:51;11.05;;;4.28;;
69414;SDS011;56608;43.530;-5.652;2023-03-01T05:55:53;8.48;;;4.12;;
69414;SDS011;56608;43.530;-5.652;2023-03-01T05:56:54;7.45;;;3.78;;
69414;SDS011;56608;43.530;-5.652;2023-03-01T05:57:57;7.40;;;4.12;;
69414;SDS011;56608;43.530;-5.652;2023-03-01T05:59:00;8.25;;;4.32;;
69414;SDS011;56608;43.530;-5.652;2023-03-01T06:00:02;9.05;;;3.90;;
69414;SDS011;56608;43.530;-5.652;2023-03-01T06:01:04;5.60;;;3.92;;
69414;SDS011;56608;43.530;-5.652;2023-03-01T06:02:05;7.10;;;4.20;;
69414;SDS011;56608;43.530;-5.652;2023-03-01T06:03:09;7.15;;;3.90;;
69414;SDS011;56608;43.530;-5.652;2023-03-01T06:04:12;9.95;;;4.22;;
69414;SDS011;56608;43.530;-5.652;2023-03-01T06:05:13;11.18;;;3.90;;
69414;SDS011;56608;43.530;-5.652;2023-03-01T06:06:15;8.25;;;4.03;;
69414;SDS011;56608;43.530;-5.652;2023-03-01T06:07:17;8.48;;;4.20;;
69414;SDS011;56608;43.530;-5.652;2023-03-01T06:08:17;10.90;;;3.80;;
69414;SDS011;56608;43.530;-5.652;2023-03-01T06:09:21;5.82;;;3.33;;
69414;SDS011;56608;43.530;-5.652;2023-03-01T06:10:21;9.05;;;3.70;;
69414;SDS011;56608;43.530;-5.652;2023-03-01T06:11:23;6.55;;;3.80;;
69414;SDS011;56608;43.530;-5.652;2023-03-01T06:12:24;8.15;;;3.70;;
69414;SDS011;56608;43.530;-5.652;2023-03-01T06:13:26;6.67;;;3.40;;
69414;SDS011;56608;43.530;-5.652;2023-03-01T06:14:27;9.10;;;3.40;;
69414;SDS011;56608;43.530;-5.652;2023-03-01T06:15:29;6.45;;;3.65;;
69414;SDS011;56608;43.530;-5.652;2023-03-01T06:16:30;7.40;;;4.15;;
69414;SDS011;56608;43.530;-5.652;2023-03-01T06:17:32;6.80;;;4.00;;
69414;SDS011;56608;43.530;-5.652;2023-03-01T06:18:38;7.55;;;3.78;;
69414;SDS011;56608;43.530;-5.652;2023-03-01T06:19:40;6.47;;;3.70;;
69414;SDS011;56608;43.530;-5.652;2023-03-01T06:20:41;5.80;;;3.35;;
69414;SDS011;56608;43.530;-5.652;2023-03-01T06:21:42;8.97;;;4.07;;
69414;SDS011;56608;43.530;-5.652;2023-03-01T06:22:44;6.82;;;3.58;;
69414;SDS011;56608;43.530;-5.652;2023-03-01T06:23:46;11.63;;;4.07;;
69414;SDS011;56608;43.530;-5.652;2023-03-01T06:24:47;9.60;;;3.50;;
69414;SDS011;56608;43.530;-5.652;2023-03-01T06:25:49;10.38;;;3.55;;
69414;SDS011;56608;43.530;-5.652;2023-03-01T06:26:52;6.43;;;3.67;;
69414;SDS011;56608;43.530;-5.652;2023-03-01T06:27:53;7.47;;;3.92;;
69414;SDS011;56608;43.530;-5.652;2023-03-01T06:29:56;6.00;;;3.75;;
69414;SDS011;56608;43.530;-5.652;2023-03-01T06:30:58;9.30;;;3.60;;
69414;SDS011;56608;43.530;-5.652;2023-03-01T06:31:59;8.25;;;3.75;;
69414;SDS011;56608;43.530;-5.652;2023-03-01T06:33:00;7.60;;;3.78;;
69414;SDS011;56608;43.530;-5.652;2023-03-01T06:34:04;6.85;;;4.05;;
69414;SDS011;56608;43.530;-5.652;2023-03-01T06:35:05;7.20;;;3.60;;
69414;SDS011;56608;43.530;-5.652;2023-03-01T06:36:07;6.30;;;3.92;;
69414;SDS011;56608;43.530;-5.652;2023-03-01T06:37:09;7.47;;;3.47;;
69414;SDS011;56608;43.530;-5.652;2023-03-01T06:38:10;8.25;;;4.05;;
69414;SDS011;56608;43.530;-5.652;2023-03-01T06:39:10;5.60;;;3.70;;
69414;SDS011;56608;43.530;-5.652;2023-03-01T06:40:12;10.63;;;4.18;;